Terminal Aerodrome Forecast
Issued by NWS

Home | Current Version | Previous Version | Text Only | Print | Product List | Glossary On
Versions: 1 2 3 4 5 6 7 8 9 10 11 12 13
000
FTUS45 KRIW 230525
TAFBPI
TAF
KBPI 230525Z 2306/2406 31008KT P6SM FEW060
     FM231200 35010KT P6SM VCSH SCT040 BKN070
      TEMPO 2313/2315 4SM -SHRASN BKN025
     FM231900 30011KT P6SM SCT060
     FM232200 30011G20KT P6SM FEW060
     FM240500 36007KT P6SM VCSH BKN035=

USA.gov is the U.S. government's official web portal to all federal, state and local government web resources and services.